Time;durP1;ratioP1;P1;durP2;ratioP2;P2;SDS_P1;SDS_P2;PMS_P1;PMS_P2;Temp;Humidity;BMP_temperature;BMP_pressure;BME280_temperature;BME280_humidity;BME280_pressure;Samples;Min_cycle;Max_cycle;Signal;HPM_P1;HPM_P2
2023/02/27 05:32:33;;;;;;;3.85;1.95;;;2.50;61.10;;;;;;6047185;23;1135572;-82
2023/02/27 05:35:37;;;;;;;2.28;2.10;;;2.50;61.30;;;;;;6097823;23;20017;-83
2023/02/27 05:38:26;;;;;;;2.75;2.55;;;2.50;61.40;;;;;;6055672;23;20026;-82
2023/02/27 05:41:04;;;;;;;2.72;2.00;;;2.50;61.20;;;;;;6099378;23;20009;-83
2023/02/27 05:43:52;;;;;;;11.93;2.75;;;2.50;61.50;;;;;;6099928;23;20045;-82
2023/02/27 05:46:22;;;;;;;2.22;2.08;;;2.40;61.60;;;;;;6097399;23;20006;-83
2023/02/27 05:48:56;;;;;;;4.28;2.50;;;2.30;61.80;;;;;;6098255;23;20026;-85
2023/02/27 05:51:26;;;;;;;1.95;1.85;;;2.30;61.80;;;;;;6098728;23;20013;-79
2023/02/27 05:54:24;;;;;;;2.60;2.40;;;2.30;62.00;;;;;;6099539;23;19998;-79
2023/02/27 05:56:52;;;;;;;1.73;1.63;;;2.40;61.90;;;;;;6099055;23;20686;-78
2023/02/27 05:59:34;;;;;;;2.88;2.28;;;2.40;61.70;;;;;;6073197;23;20008;-77
2023/02/27 06:02:00;;;;;;;3.42;2.28;;;2.40;61.60;;;;;;6072133;23;20002;-80
2023/02/27 06:04:26;;;;;;;2.03;1.92;;;2.40;61.60;;;;;;6098922;23;20038;-80
2023/02/27 06:06:52;;;;;;;2.78;2.40;;;2.40;61.70;;;;;;6073646;23;20392;-78
2023/02/27 06:09:19;;;;;;;2.67;2.40;;;2.30;61.80;;;;;;6096057;23;20006;-79
2023/02/27 06:11:44;;;;;;;3.88;2.95;;;2.40;61.60;;;;;;6073290;23;20009;-81
2023/02/27 06:14:10;;;;;;;3.30;2.17;;;2.40;61.60;;;;;;6099776;23;20082;-88
2023/02/27 06:16:37;;;;;;;2.55;2.35;;;2.40;61.50;;;;;;6074712;23;20058;-88
2023/02/27 06:19:04;;;;;;;20.80;4.50;;;2.40;61.60;;;;;;6075304;23;20003;-87
2023/02/27 06:21:30;;;;;;;2.10;2.00;;;2.30;61.70;;;;;;6074673;23;20006;-85
2023/02/27 06:23:56;;;;;;;2.35;1.83;;;2.30;61.80;;;;;;6102376;23;20002;-88
2023/02/27 06:26:22;;;;;;;1.83;1.73;;;2.40;61.80;;;;;;6090171;23;20006;-88
2023/02/27 06:28:47;;;;;;;4.80;2.45;;;2.40;61.80;;;;;;6069010;23;20062;-88
2023/02/27 06:31:13;;;;;;;3.97;2.35;;;2.30;61.70;;;;;;6098806;23;20565;-86
2023/02/27 06:33:38;;;;;;;3.75;2.05;;;2.40;61.70;;;;;;6128551;23;20426;-87
2023/02/27 06:36:04;;;;;;;5.07;2.40;;;2.40;61.70;;;;;;6130533;23;20006;-87
2023/02/27 06:38:30;;;;;;;1.77;1.67;;;2.30;61.80;;;;;;6126386;23;20435;-86
2023/02/27 06:40:58;;;;;;;2.92;1.98;;;2.30;61.90;;;;;;6132279;23;20065;-87
2023/02/27 06:43:24;;;;;;;2.60;2.40;;;2.30;62.00;;;;;;6127312;23;20383;-81
2023/02/27 06:45:53;;;;;;;4.38;2.65;;;2.30;62.00;;;;;;6126168;23;20014;-82
2023/02/27 06:48:19;;;;;;;2.47;2.27;;;2.30;61.80;;;;;;6129912;23;20072;-86
2023/02/27 06:50:45;;;;;;;4.70;2.80;;;2.20;62.10;;;;;;6128173;23;20269;-79
2023/02/27 06:53:10;;;;;;;3.75;3.45;;;2.30;62.10;;;;;;6128888;23;20057;-79
2023/02/27 06:55:37;;;;;;;4.40;2.67;;;2.30;62.10;;;;;;6127772;23;20012;-80
2023/02/27 06:58:02;;;;;;;4.88;2.47;;;2.30;62.20;;;;;;6128574;23;20010;-79
2023/02/27 07:00:28;;;;;;;4.22;2.58;;;2.30;62.20;;;;;;6128408;23;20013;-79
2023/02/27 07:02:54;;;;;;;2.70;2.50;;;2.30;62.20;;;;;;6128082;23;20009;-79
2023/02/27 07:05:20;;;;;;;2.35;2.22;;;2.30;62.10;;;;;;6130393;23;20014;-79
2023/02/27 07:07:46;;;;;;;3.08;2.35;;;2.40;62.00;;;;;;6130086;23;20006;-82
2023/02/27 07:10:12;;;;;;;3.03;2.22;;;2.30;62.10;;;;;;6130018;23;20483;-81
2023/02/27 07:12:39;;;;;;;1.83;1.73;;;2.30;62.10;;;;;;6130405;23;20053;-79
2023/02/27 07:15:06;;;;;;;4.22;2.28;;;2.40;62.20;;;;;;6130384;23;20006;-81
2023/02/27 07:17:31;;;;;;;4.22;2.63;;;2.40;62.00;;;;;;6127176;23;20074;-81
2023/02/27 07:19:57;;;;;;;2.85;2.22;;;2.30;61.90;;;;;;6129850;23;20299;-80
2023/02/27 07:22:23;;;;;;;2.92;2.20;;;2.20;62.20;;;;;;6128655;23;20461;-82
2023/02/27 07:24:48;;;;;;;3.30;2.65;;;2.30;62.20;;;;;;6130000;23;20501;-84
2023/02/27 07:27:14;;;;;;;5.68;2.75;;;2.30;62.10;;;;;;6128349;23;20520;-83
2023/02/27 07:29:40;;;;;;;2.95;2.25;;;2.30;62.00;;;;;;6129985;23;20002;-85
2023/02/27 07:32:05;;;;;;;2.65;2.45;;;2.20;62.00;;;;;;6127789;23;20354;-83
2023/02/27 07:34:31;;;;;;;8.75;4.15;;;2.30;62.20;;;;;;6128390;23;20006;-85
2023/02/27 07:36:57;;;;;;;3.95;3.55;;;2.40;61.90;;;;;;6128781;23;20010;-84
2023/02/27 07:39:22;;;;;;;7.85;3.17;;;2.80;61.00;;;;;;6128162;23;20036;-84
2023/02/27 07:41:48;;;;;;;7.40;3.42;;;3.70;59.00;;;;;;6129916;23;20009;-84
2023/02/27 07:44:14;;;;;;;9.15;3.65;;;4.70;56.80;;;;;;6130190;23;20010;-82
2023/02/27 07:46:39;;;;;;;6.55;4.32;;;5.50;54.00;;;;;;6130290;23;20001;-80
2023/02/27 07:49:05;;;;;;;4.57;3.22;;;4.90;54.20;;;;;;6129369;23;20002;-89
2023/02/27 07:51:31;;;;;;;10.23;3.55;;;4.90;54.30;;;;;;6130315;23;20006;-86
2023/02/27 07:53:57;;;;;;;5.75;3.28;;;6.70;50.80;;;;;;6127949;23;20503;-87
2023/02/27 07:56:23;;;;;;;5.95;3.88;;;8.30;47.20;;;;;;6129588;23;20002;-87
2023/02/27 07:58:49;;;;;;;4.47;3.20;;;9.10;44.10;;;;;;6129434;23;20010;-87
2023/02/27 08:01:15;;;;;;;3.85;3.40;;;9.70;41.70;;;;;;6129887;23;20085;-86
2023/02/27 08:03:40;;;;;;;3.65;2.30;;;9.90;41.30;;;;;;6129533;23;20002;-86
2023/02/27 08:06:06;;;;;;;6.65;3.20;;;9.50;41.30;;;;;;6128074;23;20442;-87
2023/02/27 08:08:32;;;;;;;4.10;3.10;;;9.20;41.50;;;;;;6129387;23;20006;-87
2023/02/27 08:10:58;;;;;;;5.30;2.70;;;9.10;42.50;;;;;;6129670;23;20002;-87
2023/02/27 08:13:24;;;;;;;4.32;2.70;;;9.50;41.70;;;;;;6127994;23;20053;-87
2023/02/27 08:15:49;;;;;;;8.55;3.20;;;10.10;40.70;;;;;;6130069;23;20316;-88
2023/02/27 08:18:15;;;;;;;3.00;2.45;;;9.90;40.20;;;;;;6127684;23;20005;-87
2023/02/27 08:20:41;;;;;;;3.75;2.65;;;9.90;40.60;;;;;;6127741;23;20010;-87
2023/02/27 08:23:07;;;;;;;4.15;3.08;;;10.00;40.30;;;;;;6128217;23;20097;-87
2023/02/27 08:25:33;;;;;;;4.25;3.10;;;9.80;40.00;;;;;;6128263;23;20481;-87
2023/02/27 08:27:59;;;;;;;4.63;3.50;;;9.70;40.40;;;;;;6128759;23;20339;-87
2023/02/27 08:30:24;;;;;;;3.75;3.45;;;10.20;39.90;;;;;;6129029;23;20006;-88
2023/02/27 08:32:50;;;;;;;4.82;2.70;;;10.30;39.10;;;;;;6103448;23;20038;-88
2023/02/27 08:35:16;;;;;;;5.53;2.47;;;10.60;38.30;;;;;;6103042;23;20013;-87
2023/02/27 08:37:41;;;;;;;4.25;2.67;;;10.40;38.40;;;;;;6103018;23;20085;-88
2023/02/27 08:40:09;;;;;;;3.40;2.67;;;9.90;38.20;;;;;;6103403;23;20457;-87
2023/02/27 08:42:36;;;;;;;4.57;3.00;;;10.10;38.50;;;;;;6129949;23;20009;-88
2023/02/27 08:45:01;;;;;;;4.25;3.30;;;10.20;38.50;;;;;;6129352;23;20021;-88
2023/02/27 08:47:27;;;;;;;4.25;2.55;;;10.60;37.70;;;;;;6128607;23;20006;-87
2023/02/27 08:49:52;;;;;;;3.53;2.53;;;10.80;37.20;;;;;;6129259;23;20383;-88
2023/02/27 08:52:18;;;;;;;4.03;2.58;;;11.50;36.40;;;;;;6102984;23;20451;-88
2023/02/27 08:54:44;;;;;;;3.50;2.05;;;11.80;35.20;;;;;;6129007;23;20457;-88
2023/02/27 08:57:09;;;;;;;4.80;2.40;;;11.70;34.60;;;;;;6129597;23;20013;-88
2023/02/27 08:59:35;;;;;;;3.95;2.92;;;11.60;34.70;;;;;;6129152;23;20654;-88
2023/02/27 09:02:01;;;;;;;3.38;2.58;;;11.80;34.80;;;;;;6129045;23;20048;-88
2023/02/27 09:04:26;;;;;;;5.35;2.60;;;11.90;34.20;;;;;;6128367;23;20006;-88
2023/02/27 09:06:52;;;;;;;4.05;2.25;;;11.80;34.00;;;;;;6128930;23;20009;-88
2023/02/27 09:09:18;;;;;;;4.07;2.10;;;12.10;33.80;;;;;;6126592;23;20002;-88
2023/02/27 09:11:47;;;;;;;3.75;2.55;;;12.00;32.60;;;;;;6129230;23;20002;-87
2023/02/27 09:14:13;;;;;;;3.30;2.70;;;11.30;33.60;;;;;;6128839;23;20026;-87
2023/02/27 09:16:38;;;;;;;4.30;2.60;;;11.20;33.40;;;;;;6128076;23;20053;-86
2023/02/27 09:19:04;;;;;;;4.78;3.35;;;10.80;34.50;;;;;;6128578;23;20061;-87
2023/02/27 09:21:31;;;;;;;5.43;2.80;;;10.30;33.90;;;;;;6129135;23;20002;-87
2023/02/27 09:24:00;;;;;;;3.55;3.25;;;10.50;34.40;;;;;;6102528;23;20002;-87
2023/02/27 09:26:25;;;;;;;4.32;3.47;;;10.70;33.90;;;;;;6103005;23;20527;-88
2023/02/27 09:28:51;;;;;;;2.92;2.45;;;11.30;33.70;;;;;;6128985;23;20002;-87
2023/02/27 09:31:17;;;;;;;3.10;2.78;;;11.80;32.60;;;;;;6111793;23;20021;-88
2023/02/27 09:33:43;;;;;;;2.78;2.58;;;12.30;31.70;;;;;;6128339;23;20002;-87
2023/02/27 09:36:09;;;;;;;3.05;2.38;;;12.50;31.10;;;;;;6127447;23;20024;-88
2023/02/27 09:38:35;;;;;;;3.22;2.78;;;12.80;30.60;;;;;;6128694;23;20010;-87
2023/02/27 09:41:02;;;;;;;4.70;3.75;;;13.20;30.10;;;;;;6127455;23;20010;-87
2023/02/27 09:43:37;;;;;;;8.52;3.42;;;13.00;28.40;;;;;;6128678;23;20009;-88
2023/02/27 09:46:04;;;;;;;4.53;2.70;;;12.60;29.10;;;;;;6128766;23;20002;-88
2023/02/27 09:48:36;;;;;;;3.40;2.97;;;12.60;29.90;;;;;;6127310;23;20010;-87
2023/02/27 09:51:02;;;;;;;3.55;2.50;;;13.00;29.40;;;;;;6126903;23;20065;-88
2023/02/27 09:53:36;;;;;;;4.53;2.97;;;13.30;29.50;;;;;;6129031;23;19998;-88
2023/02/27 09:56:24;;;;;;;2.92;2.63;;;13.20;28.80;;;;;;6127503;23;20442;-88
2023/02/27 09:59:11;;;;;;;2.58;2.38;;;13.30;28.70;;;;;;6128436;23;20061;-87
2023/02/27 10:02:04;;;;;;;2.42;2.03;;;13.40;28.90;;;;;;6128638;23;20449;-87
2023/02/27 10:04:44;;;;;;;5.32;3.20;;;12.80;28.60;;;;;;6126788;23;20013;-87
2023/02/27 10:07:19;;;;;;;3.25;2.30;;;12.50;28.40;;;;;;6129074;23;20002;-88
2023/02/27 10:10:19;;;;;;;3.92;2.50;;;11.90;29.40;;;;;;6126808;23;20050;-87
2023/02/27 10:12:47;;;;;;;3.28;2.65;;;11.60;30.40;;;;;;6127447;23;20014;-88
2023/02/27 10:15:25;;;;;;;3.75;2.17;;;11.20;31.00;;;;;;6128487;23;20465;-88
2023/02/27 10:18:17;;;;;;;4.43;2.17;;;11.00;31.50;;;;;;6127199;23;20010;-87
2023/02/27 10:20:53;;;;;;;2.85;1.73;;;10.90;31.30;;;;;;6087416;23;20010;-87
2023/02/27 10:23:30;;;;;;;4.38;1.80;;;10.40;31.70;;;;;;6129524;23;20097;-88
2023/02/27 10:25:56;;;;;;;4.75;2.38;;;10.20;33.00;;;;;;6129472;23;20025;-87
2023/02/27 10:28:22;;;;;;;4.20;2.30;;;9.80;32.90;;;;;;6128902;23;20006;-87
2023/02/27 10:30:50;;;;;;;2.80;1.63;;;9.70;33.90;;;;;;6130151;23;20045;-87
2023/02/27 10:33:41;;;;;;;4.15;2.05;;;9.30;33.90;;;;;;6130804;23;20009;-87
2023/02/27 10:36:12;;;;;;;3.22;1.83;;;8.80;34.90;;;;;;6105085;23;20057;-86
2023/02/27 10:38:43;;;;;;;6.70;2.78;;;8.40;34.80;;;;;;6130394;23;20006;-87
2023/02/27 10:41:11;;;;;;;3.92;2.33;;;8.20;35.60;;;;;;6130061;23;20009;-86
2023/02/27 10:43:37;;;;;;;2.95;2.30;;;8.10;36.00;;;;;;6130818;23;20006;-85
2023/02/27 10:46:12;;;;;;;4.20;1.90;;;8.00;36.30;;;;;;6104076;23;20010;-87
2023/02/27 10:48:40;;;;;;;2.20;2.00;;;8.00;36.70;;;;;;6104525;23;20061;-86
2023/02/27 10:51:26;;;;;;;2.90;1.88;;;8.00;36.90;;;;;;6130495;23;20073;-86
2023/02/27 10:54:12;;;;;;;3.53;2.20;;;7.80;36.50;;;;;;6104179;23;20013;-86
2023/02/27 10:56:39;;;;;;;3.20;2.35;;;7.70;36.90;;;;;;6104672;23;20026;-86
2023/02/27 10:59:15;;;;;;;4.07;1.73;;;7.80;36.80;;;;;;6130159;23;20005;-86
2023/02/27 11:01:56;;;;;;;4.90;1.58;;;7.70;36.10;;;;;;6104573;23;20030;-87
2023/02/27 11:04:33;;;;;;;1.80;1.65;;;7.50;37.10;;;;;;6104204;23;20010;-88
2023/02/27 11:07:02;;;;;;;3.63;1.90;;;7.50;37.30;;;;;;6130138;23;20399;-86
2023/02/27 11:09:31;;;;;;;3.10;1.67;;;7.60;36.90;;;;;;6130196;23;20002;-87
2023/02/27 11:12:16;;;;;;;2.15;1.52;;;7.60;36.40;;;;;;6129776;23;20032;-87
2023/02/27 11:14:56;;;;;;;1.83;1.60;;;7.80;36.90;;;;;;6130255;23;20498;-87
2023/02/27 11:17:28;;;;;;;3.35;1.77;;;7.70;36.70;;;;;;6129560;23;20027;-87
2023/02/27 11:19:56;;;;;;;1.52;1.42;;;7.70;36.10;;;;;;6103604;23;20498;-86
2023/02/27 11:22:24;;;;;;;3.53;2.00;;;7.60;36.40;;;;;;6103845;23;20006;-86
2023/02/27 11:24:52;;;;;;;3.25;1.90;;;7.70;36.60;;;;;;6130175;23;20082;-87
2023/02/27 11:27:27;;;;;;;2.15;1.67;;;7.80;36.40;;;;;;6129962;23;20006;-86
2023/02/27 11:30:02;;;;;;;2.75;1.80;;;7.70;35.70;;;;;;6104433;23;20006;-86
2023/02/27 11:32:35;;;;;;;2.00;1.77;;;7.70;35.60;;;;;;6127235;23;20033;-86
2023/02/27 11:35:01;;;;;;;2.20;1.90;;;7.70;35.90;;;;;;6128518;23;20013;-87
2023/02/27 11:37:35;;;;;;;2.75;2.33;;;7.70;36.00;;;;;;6127832;23;20010;-87
2023/02/27 11:40:14;;;;;;;2.78;2.15;;;7.70;36.00;;;;;;6130430;23;20701;-87
2023/02/27 11:42:54;;;;;;;5.07;2.45;;;7.70;36.20;;;;;;6128362;23;20137;-87
2023/02/27 11:45:19;;;;;;;2.27;1.90;;;7.70;36.70;;;;;;6128518;23;20021;-87
2023/02/27 11:47:50;;;;;;;2.35;1.90;;;7.70;36.70;;;;;;6128112;23;20435;-87
2023/02/27 11:50:50;;;;;;;3.20;2.40;;;7.70;36.60;;;;;;6128516;23;20099;-87
2023/02/27 11:53:28;;;;;;;2.90;2.10;;;7.70;36.20;;;;;;6128196;23;20010;-87
2023/02/27 11:55:58;;;;;;;6.53;2.58;;;7.80;35.50;;;;;;6130478;23;20005;-87
2023/02/27 11:58:28;;;;;;;8.38;2.10;;;7.80;35.50;;;;;;6128370;23;20089;-87
2023/02/27 12:01:03;;;;;;;2.28;2.08;;;8.00;36.10;;;;;;6129747;23;20002;-86
2023/02/27 12:03:39;;;;;;;3.33;2.28;;;8.10;36.10;;;;;;6130167;23;20006;-86
2023/02/27 12:06:14;;;;;;;3.35;2.25;;;8.20;36.20;;;;;;6127958;23;20013;-86
2023/02/27 12:08:46;;;;;;;2.63;1.90;;;8.20;36.10;;;;;;6128357;23;20087;-86
2023/02/27 12:11:14;;;;;;;3.15;2.50;;;8.30;36.80;;;;;;6129960;23;20668;-86
2023/02/27 12:13:45;;;;;;;2.75;2.17;;;8.30;35.40;;;;;;6128662;23;20105;-86
2023/02/27 12:16:35;;;;;;;3.78;2.67;;;8.20;35.60;;;;;;6128306;23;20093;-86
2023/02/27 12:19:09;;;;;;;2.45;2.05;;;8.20;35.50;;;;;;6129909;23;20362;-87
2023/02/27 12:21:40;;;;;;;4.75;2.38;;;8.20;35.10;;;;;;6128212;23;20042;-86
2023/02/27 12:24:18;;;;;;;2.90;2.13;;;8.20;35.00;;;;;;6130210;23;20057;-87
2023/02/27 12:26:51;;;;;;;5.35;2.80;;;8.20;35.20;;;;;;6128141;23;20447;-87
2023/02/27 12:29:20;;;;;;;5.70;2.42;;;8.10;35.60;;;;;;6129759;23;20332;-86
2023/02/27 12:31:54;;;;;;;5.57;2.17;;;8.00;35.80;;;;;;6128063;23;20025;-88
2023/02/27 12:34:45;;;;;;;2.72;2.28;;;8.20;37.00;;;;;;6127943;23;20020;-87
2023/02/27 12:37:12;;;;;;;;;;;8.30;36.60;;;;;;6130012;23;20081;-80
2023/02/27 12:39:41;;;;;;;4.40;3.10;;;8.40;36.50;;;;;;6128533;23;19937;-84
2023/02/27 12:42:28;;;;;;;2.40;2.15;;;8.50;36.60;;;;;;6130459;23;20005;-81
2023/02/27 12:45:19;;;;;;;2.47;1.83;;;8.50;37.40;;;;;;6127413;23;20080;-81
2023/02/27 12:47:54;;;;;;;2.30;2.08;;;8.50;35.60;;;;;;6127671;23;20010;-81
2023/02/27 12:50:22;;;;;;;4.65;2.50;;;8.50;35.90;;;;;;6128984;23;20435;-80
2023/02/27 12:53:25;;;;;;;3.10;2.50;;;8.50;34.60;;;;;;6129213;23;20085;-81
2023/02/27 12:56:02;;;;;;;2.40;2.20;;;8.50;34.30;;;;;;6129680;23;20030;-80
2023/02/27 12:58:59;;;;;;;2.67;2.10;;;8.50;34.30;;;;;;6127232;23;20034;-80
2023/02/27 13:01:49;;;;;;;3.83;2.13;;;8.50;34.90;;;;;;6128941;23;20006;-81
2023/02/27 13:04:18;;;;;;;5.53;2.88;;;8.40;34.10;;;;;;6128991;23;20010;-82
2023/02/27 13:06:54;;;;;;;3.38;2.55;;;8.50;34.80;;;;;;6126866;23;20068;-81
2023/02/27 13:09:50;;;;;;;3.15;2.42;;;8.60;34.90;;;;;;6127937;23;20105;-80
2023/02/27 13:12:41;;;;;;;3.25;2.33;;;8.60;35.00;;;;;;6127292;23;19998;-81
2023/02/27 13:15:15;;;;;;;3.30;2.00;;;8.60;34.60;;;;;;6127320;23;20485;-81
2023/02/27 13:17:57;;;;;;;3.58;2.05;;;8.60;33.20;;;;;;6129082;23;20006;-81
2023/02/27 13:20:38;;;;;;;9.70;2.28;;;8.70;34.20;;;;;;6129418;23;20535;-80
2023/02/27 13:23:17;;;;;;;4.57;2.40;;;8.70;34.40;;;;;;6128973;23;20006;-81
2023/02/27 13:25:49;;;;;;;3.55;2.10;;;8.80;35.40;;;;;;6127850;23;20073;-81
2023/02/27 13:28:19;;;;;;;5.20;2.80;;;8.80;34.20;;;;;;6128172;23;20010;-81
2023/02/27 13:31:06;;;;;;;3.40;2.28;;;8.90;34.40;;;;;;6129044;23;20093;-81
2023/02/27 13:33:38;;;;;;;2.40;2.03;;;8.90;34.00;;;;;;6128380;23;20006;-81
2023/02/27 13:36:06;;;;;;;5.65;2.83;;;9.00;33.90;;;;;;6102705;23;20006;-81
2023/02/27 13:38:47;;;;;;;4.32;1.95;;;9.00;34.10;;;;;;6128638;23;20006;-82
2023/02/27 13:41:27;;;;;;;4.30;2.63;;;8.90;33.40;;;;;;6128934;23;20002;-81
2023/02/27 13:43:54;;;;;;;;;;;8.80;33.20;;;;;;6129031;23;20006;-81
2023/02/27 13:46:22;;;;;;;1.90;1.80;;;8.70;33.20;;;;;;6102335;23;19956;-81
2023/02/27 13:48:53;;;;;;;5.43;2.40;;;8.70;33.50;;;;;;6102056;23;20010;-82
2023/02/27 13:51:34;;;;;;;2.60;2.40;;;8.70;33.20;;;;;;6128902;23;20005;-81
2023/02/27 13:54:17;;;;;;;5.00;2.40;;;8.80;33.60;;;;;;6102586;23;20034;-81
2023/02/27 13:56:58;;;;;;;3.63;2.30;;;8.80;33.90;;;;;;6128414;23;19998;-81
2023/02/27 13:59:55;;;;;;;4.32;2.72;;;8.80;33.40;;;;;;6128517;23;20032;-81
2023/02/27 14:02:39;;;;;;;2.95;2.10;;;8.90;33.60;;;;;;6127285;23;20087;-81
2023/02/27 14:05:07;;;;;;;3.50;2.53;;;9.00;34.10;;;;;;6102439;23;20451;-82
2023/02/27 14:07:49;;;;;;;3.95;2.70;;;9.00;33.10;;;;;;6128234;23;20005;-82
2023/02/27 14:10:36;;;;;;;4.55;2.35;;;9.00;32.40;;;;;;6102665;23;20016;-81
2023/02/27 14:13:02;;;;;;;4.07;1.83;;;9.00;32.00;;;;;;6102633;23;20013;-81
2023/02/27 14:15:31;;;;;;;3.88;2.10;;;9.00;32.60;;;;;;6128154;23;20370;-81
2023/02/27 14:18:03;;;;;;;4.07;2.00;;;9.00;33.20;;;;;;6102389;23;20454;-81
2023/02/27 14:20:29;;;;;;;7.45;2.17;;;9.10;33.00;;;;;;6129164;23;20048;-82
2023/02/27 14:23:24;;;;;;;2.53;1.60;;;9.10;33.10;;;;;;6102134;23;20042;-81
2023/02/27 14:25:56;;;;;;;4.20;2.60;;;9.10;33.30;;;;;;6102926;23;20010;-82
2023/02/27 14:28:29;;;;;;;5.53;2.92;;;9.10;33.60;;;;;;6128248;23;20002;-82
2023/02/27 14:31:01;;;;;;;2.97;2.60;;;9.10;34.20;;;;;;6107064;23;20018;-82
2023/02/27 14:33:40;;;;;;;5.63;2.83;;;9.20;34.00;;;;;;6126450;23;20002;-81
2023/02/27 14:36:13;;;;;;;3.58;2.83;;;9.10;32.80;;;;;;6128434;23;20006;-81
2023/02/27 14:38:39;;;;;;;7.72;2.90;;;9.20;33.30;;;;;;6128579;23;20006;-81
2023/02/27 14:41:19;;;;;;;3.65;2.42;;;9.20;33.20;;;;;;6126801;23;20010;-82
2023/02/27 14:43:54;;;;;;;5.93;2.97;;;9.20;33.10;;;;;;6126500;23;20017;-82
2023/02/27 14:46:36;;;;;;;8.77;2.97;;;9.20;32.60;;;;;;6126573;23;20021;-82
2023/02/27 14:49:06;;;;;;;3.85;2.75;;;9.10;32.30;;;;;;6127494;23;20060;-83
2023/02/27 14:51:35;;;;;;;3.37;2.27;;;9.00;32.20;;;;;;6128184;23;20073;-82
2023/02/27 14:54:02;;;;;;;2.88;2.08;;;8.90;32.30;;;;;;6128520;23;19998;-82
2023/02/27 14:56:28;;;;;;;3.33;1.90;;;8.90;32.60;;;;;;6126989;23;20030;-82
2023/02/27 14:58:55;;;;;;;4.18;2.50;;;9.00;32.30;;;;;;6128018;23;20055;-82
2023/02/27 15:01:22;;;;;;;3.03;2.00;;;8.90;31.50;;;;;;6128558;23;20030;-82
2023/02/27 15:03:51;;;;;;;5.65;4.15;;;9.00;32.40;;;;;;6125373;23;20017;-82
2023/02/27 15:06:41;;;;;;;2.88;2.28;;;9.00;32.40;;;;;;6128036;23;20017;-82
2023/02/27 15:09:07;;;;;;;3.42;2.08;;;9.00;32.30;;;;;;6129820;23;20006;-82
2023/02/27 15:11:34;;;;;;;4.60;3.08;;;9.00;32.60;;;;;;6130570;23;19998;-82
2023/02/27 15:14:05;;;;;;;3.88;2.15;;;9.00;32.40;;;;;;6129973;23;20009;-82
2023/02/27 15:16:40;;;;;;;4.43;2.40;;;8.90;32.50;;;;;;6128378;23;20006;-81
2023/02/27 15:19:18;;;;;;;4.05;2.70;;;9.00;32.10;;;;;;6129565;23;20006;-83
2023/02/27 15:21:50;;;;;;;4.00;2.42;;;9.00;32.00;;;;;;6130168;23;20006;-83
2023/02/27 15:24:22;;;;;;;2.60;2.22;;;8.90;32.30;;;;;;6130280;23;20085;-82
2023/02/27 15:26:53;;;;;;;4.00;2.60;;;9.00;32.40;;;;;;6128213;23;20061;-82
2023/02/27 15:29:23;;;;;;;5.25;3.38;;;9.00;32.60;;;;;;6128215;23;20032;-82
2023/02/27 15:31:49;;;;;;;4.35;2.85;;;8.90;32.80;;;;;;6127871;23;20018;-81
2023/02/27 15:34:16;;;;;;;5.05;2.67;;;9.00;32.10;;;;;;6127962;23;20010;-80
2023/02/27 15:36:47;;;;;;;4.65;2.35;;;8.90;31.70;;;;;;6129962;23;20076;-81
2023/02/27 15:39:24;;;;;;;7.35;2.60;;;8.90;31.50;;;;;;6128149;23;20334;-80
2023/02/27 15:41:51;;;;;;;4.68;2.42;;;8.90;31.70;;;;;;6128647;23;20010;-80
2023/02/27 15:44:22;;;;;;;3.53;2.65;;;8.90;32.20;;;;;;6128325;23;20116;-80
2023/02/27 15:46:48;;;;;;;5.50;2.50;;;8.90;32.30;;;;;;6127795;23;20009;-81
2023/02/27 15:49:16;;;;;;;3.80;3.03;;;9.00;32.80;;;;;;6127651;23;20014;-80
2023/02/27 15:51:42;;;;;;;5.47;3.15;;;9.00;32.60;;;;;;6128023;23;20006;-80
2023/02/27 15:54:09;;;;;;;3.55;2.70;;;8.90;32.90;;;;;;6128131;23;20016;-81
2023/02/27 15:56:37;;;;;;;3.58;2.35;;;8.90;32.50;;;;;;6129756;23;20081;-82
2023/02/27 15:59:04;;;;;;;4.78;2.78;;;8.80;31.90;;;;;;6129112;23;20006;-83
2023/02/27 16:01:31;;;;;;;4.97;2.63;;;8.80;32.40;;;;;;6129603;23;20066;-83
2023/02/27 16:04:04;;;;;;;5.43;2.60;;;8.80;32.30;;;;;;6127629;23;20006;-83
2023/02/27 16:06:39;;;;;;;4.13;2.40;;;8.70;32.20;;;;;;6129618;23;20033;-83
2023/02/27 16:09:18;;;;;;;6.05;2.72;;;8.70;32.10;;;;;;6127891;23;20041;-82
2023/02/27 16:11:43;;;;;;;3.25;2.17;;;8.70;32.60;;;;;;6127389;23;20009;-82
2023/02/27 16:14:39;;;;;;;3.28;2.47;;;8.70;32.70;;;;;;6129551;23;20007;-82
2023/02/27 16:17:24;;;;;;;3.47;2.75;;;8.60;33.40;;;;;;6127369;23;20006;-82
2023/02/27 16:19:50;;;;;;;9.20;4.65;;;8.60;34.40;;;;;;6127148;23;20010;-83
2023/02/27 16:22:18;;;;;;;3.55;2.63;;;8.50;35.10;;;;;;6129674;23;20002;-82
2023/02/27 16:24:45;;;;;;;2.03;1.83;;;8.50;34.90;;;;;;6129882;23;20008;-82
2023/02/27 16:27:23;;;;;;;4.70;3.00;;;8.50;35.30;;;;;;6129031;23;20056;-83
2023/02/27 16:29:51;;;;;;;4.75;3.20;;;8.40;35.70;;;;;;6129624;23;20006;-82
2023/02/27 16:32:26;;;;;;;7.13;3.20;;;8.40;36.00;;;;;;6127327;23;20022;-82
2023/02/27 16:35:00;;;;;;;3.70;2.65;;;8.40;36.30;;;;;;6127919;23;20009;-83
2023/02/27 16:37:37;;;;;;;6.85;3.78;;;8.30;36.70;;;;;;6128855;23;20013;-82
2023/02/27 16:40:16;;;;;;;4.95;2.70;;;8.30;36.80;;;;;;6129540;23;20040;-82
2023/02/27 16:42:43;;;;;;;4.13;3.03;;;8.30;37.50;;;;;;6129305;23;20030;-82
2023/02/27 16:45:23;;;;;;;5.18;2.97;;;8.30;37.90;;;;;;6129555;23;20064;-82
2023/02/27 16:47:50;;;;;;;6.45;3.47;;;8.20;38.00;;;;;;6127103;23;20430;-83
2023/02/27 16:50:26;;;;;;;5.65;3.53;;;8.20;38.50;;;;;;6127466;23;20799;-83
2023/02/27 16:52:52;;;;;;;5.05;3.20;;;8.10;38.70;;;;;;6129688;23;19998;-82
2023/02/27 16:55:17;;;;;;;5.38;2.72;;;8.00;38.20;;;;;;6129289;23;20005;-82
2023/02/27 16:57:43;;;;;;;5.10;2.85;;;7.90;38.60;;;;;;6128426;23;20010;-82
2023/02/27 17:00:14;;;;;;;6.75;3.53;;;7.90;38.60;;;;;;6129059;23;20435;-82
2023/02/27 17:02:40;;;;;;;4.18;3.10;;;7.90;39.00;;;;;;6128395;23;20006;-82
2023/02/27 17:05:07;;;;;;;4.50;2.50;;;7.90;39.00;;;;;;6128634;23;20010;-80
2023/02/27 17:07:32;;;;;;;3.85;2.95;;;7.80;39.00;;;;;;6129096;23;20076;-81
2023/02/27 17:09:59;;;;;;;5.25;3.38;;;7.80;39.10;;;;;;6127820;23;20005;-79
2023/02/27 17:12:25;;;;;;;5.35;3.60;;;7.70;39.10;;;;;;6129186;23;19998;-79
2023/02/27 17:14:51;;;;;;;4.85;2.40;;;7.70;39.40;;;;;;6127972;23;20049;-80
2023/02/27 17:17:17;;;;;;;6.60;4.05;;;7.70;39.40;;;;;;6128678;23;20005;-82
2023/02/27 17:19:42;;;;;;;6.60;4.55;;;7.70;39.50;;;;;;6127566;23;20331;-80
2023/02/27 17:22:08;;;;;;;6.43;4.72;;;7.70;39.80;;;;;;6124711;23;20006;-80
2023/02/27 17:24:35;;;;;;;9.15;4.65;;;7.60;40.20;;;;;;6126640;23;20010;-78
2023/02/27 17:27:01;;;;;;;6.38;3.70;;;7.60;40.20;;;;;;6127569;23;20423;-81
2023/02/27 17:29:27;;;;;;;5.05;3.40;;;7.60;40.20;;;;;;6128787;23;20028;-86
2023/02/27 17:31:53;;;;;;;4.60;3.53;;;7.50;40.50;;;;;;6119244;23;20022;-79
2023/02/27 17:34:18;;;;;;;7.28;3.75;;;7.50;40.60;;;;;;6127238;23;19998;-86
2023/02/27 17:36:44;;;;;;;5.28;3.53;;;7.40;40.80;;;;;;6126544;23;20010;-80
2023/02/27 17:39:14;;;;;;;10.35;5.35;;;7.30;41.30;;;;;;6127900;23;20002;-80
2023/02/27 17:41:41;;;;;;;6.43;4.65;;;7.20;41.40;;;;;;6126782;23;20017;-80
2023/02/27 17:44:10;;;;;;;6.82;4.43;;;7.20;41.60;;;;;;6128209;23;20379;-81
2023/02/27 17:46:36;;;;;;;7.57;4.10;;;7.20;41.80;;;;;;6085370;23;20558;-81
2023/02/27 17:49:02;;;;;;;9.13;4.65;;;7.20;41.80;;;;;;6099717;23;20006;-84
2023/02/27 17:51:29;;;;;;;7.85;5.22;;;7.20;42.20;;;;;;6125995;23;20073;-86
2023/02/27 17:53:56;;;;;;;6.20;3.47;;;7.20;42.70;;;;;;6127131;23;20022;-80
2023/02/27 17:56:22;;;;;;;9.48;4.85;;;7.10;43.40;;;;;;6115668;23;20013;-80
2023/02/27 17:58:48;;;;;;;6.18;3.90;;;7.00;43.90;;;;;;6127843;23;20002;-80
2023/02/27 18:01:19;;;;;;;8.35;5.28;;;7.00;44.20;;;;;;6127675;23;20006;-80
2023/02/27 18:03:45;;;;;;;4.78;3.20;;;6.90;45.00;;;;;;6125375;23;20012;-80
2023/02/27 18:06:11;;;;;;;5.10;3.55;;;6.90;45.30;;;;;;6127413;23;20018;-80
2023/02/27 18:08:37;;;;;;;9.00;4.85;;;6.90;45.40;;;;;;6124955;23;20006;-80
2023/02/27 18:11:03;;;;;;;5.50;4.10;;;6.90;45.50;;;;;;6127692;23;20036;-79
2023/02/27 18:13:29;;;;;;;6.65;4.18;;;6.80;46.20;;;;;;6127857;23;20009;-79
2023/02/27 18:15:56;;;;;;;7.90;3.72;;;6.70;46.60;;;;;;6126998;23;20009;-79
2023/02/27 18:18:22;;;;;;;7.25;4.63;;;6.70;47.20;;;;;;6127715;23;20035;-80
2023/02/27 18:20:58;;;;;;;9.68;4.90;;;6.70;47.70;;;;;;6127338;23;20002;-80
2023/02/27 18:23:23;;;;;;;11.05;4.53;;;6.60;48.40;;;;;;6120448;23;20089;-80
2023/02/27 18:25:53;;;;;;;6.45;3.65;;;6.50;48.50;;;;;;6123898;23;20006;-79
2023/02/27 18:28:19;;;;;;;4.75;3.42;;;6.50;48.90;;;;;;6123707;23;20109;-79
2023/02/27 18:30:45;;;;;;;10.10;5.38;;;6.50;48.90;;;;;;6122132;23;20085;-79
2023/02/27 18:33:10;;;;;;;6.63;4.70;;;6.50;49.20;;;;;;6126297;23;20057;-79
2023/02/27 18:35:36;;;;;;;13.45;5.20;;;6.40;49.70;;;;;;6128026;23;20097;-80
2023/02/27 18:38:02;;;;;;;6.30;4.25;;;6.30;49.70;;;;;;6127838;23;20010;-80
2023/02/27 18:40:28;;;;;;;5.72;4.10;;;6.30;50.00;;;;;;6126090;23;20032;-76
2023/02/27 18:42:54;;;;;;;7.60;4.03;;;6.30;50.10;;;;;;6128356;23;20365;-78
2023/02/27 18:45:20;;;;;;;8.07;5.18;;;6.20;50.60;;;;;;6129602;23;20014;-78
2023/02/27 18:47:46;;;;;;;5.75;4.80;;;6.20;50.80;;;;;;6129844;23;20094;-78